Time;durP1;ratioP1;P1;durP2;ratioP2;P2;SDS_P1;SDS_P2;PMS_P1;PMS_P2;Temp;Humidity;BMP_temperature;BMP_pressure;BME280_temperature;BME280_humidity;BME280_pressure;Samples;Min_cycle;Max_cycle;Signal;HPM_P1;HPM_P2
2022/11/24 00:04:48;;;;;;;47.43;24.67;;;8.20;99.90;;;;;;10325411;28;20236;-83
2022/11/24 00:09:50;;;;;;;62.10;32.03;;;8.40;99.90;;;;;;10357758;28;20677;-83
2022/11/24 00:14:53;;;;;;;51.90;28.13;;;8.60;99.90;;;;;;10326334;28;20234;-84
2022/11/24 00:19:55;;;;;;;43.40;21.90;;;8.80;99.90;;;;;;10325900;28;20257;-83
2022/11/24 00:24:57;;;;;;;47.90;26.23;;;9.40;99.90;;;;;;10331047;28;20220;-83
2022/11/24 00:30:00;;;;;;;62.57;30.87;;;9.50;99.90;;;;;;10333849;28;20664;-83
2022/11/24 00:35:03;;;;;;;44.93;23.57;;;9.20;99.90;;;;;;10332347;28;20232;-83
2022/11/24 00:40:06;;;;;;;58.07;28.27;;;9.00;99.90;;;;;;10333248;28;20607;-83
2022/11/24 00:45:08;;;;;;;47.10;24.07;;;9.00;99.90;;;;;;10332440;28;20226;-83
2022/11/24 00:50:15;;;;;;;58.50;28.07;;;8.30;99.90;;;;;;10315676;28;20212;-83
2022/11/24 00:55:18;;;;;;;55.70;30.33;;;7.90;99.90;;;;;;10332849;28;20252;-83
2022/11/24 01:00:20;;;;;;;45.33;24.73;;;8.10;99.90;;;;;;10330864;28;20588;-83
2022/11/24 01:05:23;;;;;;;41.10;22.03;;;8.20;99.90;;;;;;10332406;28;20228;-83
2022/11/24 01:10:25;;;;;;;53.27;29.50;;;8.90;99.90;;;;;;10331226;28;20821;-83
2022/11/24 01:15:29;;;;;;;48.83;26.53;;;8.80;99.90;;;;;;10332196;28;20255;-83
2022/11/24 01:20:31;;;;;;;53.83;29.87;;;8.60;99.90;;;;;;10331898;28;20384;-83
2022/11/24 01:25:34;;;;;;;44.77;24.27;;;9.00;99.90;;;;;;10332055;28;20305;-83
2022/11/24 01:30:36;;;;;;;40.70;23.03;;;9.30;99.90;;;;;;10332118;28;20244;-83
2022/11/24 01:35:38;;;;;;;48.47;24.73;;;9.20;99.90;;;;;;10331060;28;20255;-83
2022/11/24 01:40:41;;;;;;;48.13;25.07;;;8.70;99.90;;;;;;10329570;28;20229;-83
2022/11/24 01:45:44;;;;;;;47.03;25.10;;;8.90;99.90;;;;;;10330749;28;20291;-83
2022/11/24 01:50:52;;;;;;;45.60;24.47;;;8.80;99.90;;;;;;10330812;28;20227;-83
2022/11/24 01:55:55;;;;;;;55.07;29.73;;;8.50;99.90;;;;;;10330745;28;20316;-83
2022/11/24 02:00:58;;;;;;;55.50;27.53;;;7.80;99.90;;;;;;10330498;28;20304;-83
2022/11/24 02:06:18;;;;;;;52.27;28.47;;;7.70;99.90;;;;;;10330306;28;20337;-83
2022/11/24 02:11:22;;;;;;;68.03;34.17;;;8.00;99.90;;;;;;10328924;28;20208;-83
2022/11/24 02:16:25;;;;;;;70.43;35.97;;;7.60;99.90;;;;;;10329434;28;20740;-83
2022/11/24 02:21:28;;;;;;;65.13;32.57;;;7.80;99.90;;;;;;10329254;28;20225;-83
2022/11/24 02:26:46;;;;;;;56.77;28.77;;;7.20;99.90;;;;;;10328422;28;20694;-83
2022/11/24 02:31:55;;;;;;;58.73;30.60;;;7.00;99.90;;;;;;10328755;28;20287;-83
2022/11/24 02:36:58;;;;;;;65.77;32.83;;;7.40;99.90;;;;;;10360342;28;20323;-83
2022/11/24 02:42:12;;;;;;;47.27;24.33;;;7.20;99.90;;;;;;10327700;28;20209;-83
2022/11/24 02:47:14;;;;;;;40.80;22.67;;;7.30;99.90;;;;;;10326982;28;20259;-83
2022/11/24 02:52:17;;;;;;;37.13;21.60;;;7.80;99.90;;;;;;10328681;28;20201;-83
2022/11/24 02:57:22;;;;;;;59.87;27.33;;;8.20;99.90;;;;;;10326773;28;20283;-83
2022/11/24 03:02:24;;;;;;;57.57;29.70;;;7.80;99.90;;;;;;10328172;28;20214;-83
2022/11/24 03:07:27;;;;;;;61.10;32.50;;;7.50;99.90;;;;;;10359481;28;20696;-83
2022/11/24 03:12:29;;;;;;;47.17;25.50;;;6.60;99.90;;;;;;10327867;28;20287;-83
2022/11/24 03:17:32;;;;;;;57.67;29.30;;;6.90;99.90;;;;;;10326457;28;20261;-83
2022/11/24 03:22:35;;;;;;;59.40;30.43;;;6.80;99.90;;;;;;10328108;28;20229;-83
2022/11/24 03:27:38;;;;;;;40.73;22.03;;;6.80;99.90;;;;;;10327576;28;20232;-83
2022/11/24 03:32:40;;;;;;;63.67;32.47;;;7.10;99.90;;;;;;10342302;28;20243;-83
2022/11/24 03:37:43;;;;;;;57.33;27.90;;;6.40;99.90;;;;;;10327657;28;20306;-83
2022/11/24 03:42:45;;;;;;;59.83;32.13;;;6.40;99.90;;;;;;10327502;28;20229;-83
2022/11/24 03:47:51;;;;;;;71.37;35.47;;;6.60;99.90;;;;;;10327364;28;20230;-83
2022/11/24 03:52:53;;;;;;;68.87;32.80;;;6.10;99.90;;;;;;10339628;28;20249;-84
2022/11/24 03:57:56;;;;;;;68.27;36.30;;;6.00;99.90;;;;;;10368636;28;20700;-82
2022/11/24 04:02:58;;;;;;;43.73;24.00;;;5.60;99.90;;;;;;10338418;28;20219;-83
2022/11/24 04:08:02;;;;;;;56.40;29.03;;;6.20;99.90;;;;;;10334575;28;20291;-83
2022/11/24 04:13:13;;;;;;;58.83;29.93;;;6.40;99.90;;;;;;10332822;28;20857;-83
2022/11/24 04:18:16;;;;;;;56.90;28.87;;;5.90;99.90;;;;;;10316674;28;20323;-83
2022/11/24 04:23:19;;;;;;;43.37;22.07;;;5.80;99.90;;;;;;10333806;28;20670;-83
2022/11/24 04:28:21;;;;;;;61.63;32.30;;;6.10;99.90;;;;;;10332886;28;20211;-83
2022/11/24 04:33:24;;;;;;;65.73;31.17;;;6.10;99.90;;;;;;10331951;28;20623;-83
2022/11/24 04:38:26;;;;;;;69.73;34.93;;;6.10;99.90;;;;;;10332823;28;20301;-83
2022/11/24 04:43:49;;;;;;;50.00;25.33;;;6.00;99.90;;;;;;10332880;28;20231;-84
2022/11/24 04:48:52;;;;;;;56.30;26.97;;;6.70;99.90;;;;;;10331503;28;20315;-83
2022/11/24 04:53:54;;;;;;;40.73;22.27;;;6.70;99.90;;;;;;10332407;28;20228;-83
2022/11/24 04:58:57;;;;;;;69.83;33.70;;;7.30;99.90;;;;;;10332048;28;20259;-83
2022/11/24 05:03:59;;;;;;;57.93;30.33;;;7.00;99.90;;;;;;10331972;28;20233;-83
2022/11/24 05:09:03;;;;;;;58.37;30.37;;;7.00;99.90;;;;;;10329401;28;20259;-83
2022/11/24 05:14:05;;;;;;;72.50;35.20;;;6.70;99.90;;;;;;10330414;28;20228;-83
2022/11/24 05:19:08;;;;;;;67.53;33.30;;;6.20;99.90;;;;;;10331263;28;20307;-83
2022/11/24 05:24:10;;;;;;;72.30;37.57;;;6.30;99.90;;;;;;10331636;28;20279;-83
2022/11/24 05:29:13;;;;;;;62.80;32.37;;;6.50;99.90;;;;;;10331314;28;20259;-83
2022/11/24 05:34:16;;;;;;;37.43;21.60;;;6.90;99.90;;;;;;10330280;28;20260;-83
2022/11/24 05:39:20;;;;;;;50.50;26.23;;;7.20;99.90;;;;;;10328516;28;20275;-83
2022/11/24 05:44:22;;;;;;;44.70;24.43;;;7.00;99.90;;;;;;10330387;28;20231;-84
2022/11/24 05:49:25;;;;;;;53.70;26.20;;;6.80;99.90;;;;;;10328011;28;20236;-84
2022/11/24 05:54:27;;;;;;;69.57;34.77;;;7.10;99.90;;;;;;10329268;28;20235;-84
2022/11/24 05:59:30;;;;;;;57.67;27.80;;;6.30;99.90;;;;;;10329755;28;20306;-84
2022/11/24 06:04:32;;;;;;;68.20;32.70;;;6.70;99.90;;;;;;10329382;28;20282;-83
2022/11/24 06:09:37;;;;;;;47.17;26.83;;;7.00;99.90;;;;;;10329503;28;20232;-83
2022/11/24 06:14:40;;;;;;;47.30;22.87;;;7.00;99.90;;;;;;10328603;28;20233;-83
2022/11/24 06:19:46;;;;;;;69.70;36.77;;;7.20;99.90;;;;;;10329197;28;20260;-84
2022/11/24 06:24:50;;;;;;;75.30;34.47;;;6.80;99.90;;;;;;10329684;28;20262;-83
2022/11/24 06:29:52;;;;;;;81.00;39.20;;;7.20;99.90;;;;;;10327941;28;20249;-83
2022/11/24 06:34:54;;;;;;;71.27;34.10;;;7.00;99.90;;;;;;10329675;28;20243;-83
2022/11/24 06:39:57;;;;;;;51.70;28.90;;;7.40;99.90;;;;;;10327484;28;20257;-83
2022/11/24 06:44:59;;;;;;;56.83;30.10;;;7.70;99.90;;;;;;10329238;28;20204;-83
2022/11/24 06:50:02;;;;;;;53.90;26.63;;;8.10;99.90;;;;;;10328777;28;20236;-83
2022/11/24 06:55:05;;;;;;;47.67;24.20;;;8.30;99.90;;;;;;10328490;28;20232;-83
2022/11/24 07:00:09;;;;;;;45.70;25.10;;;8.50;99.90;;;;;;10326895;28;20317;-83
2022/11/24 07:05:12;;;;;;;62.77;30.47;;;8.70;99.90;;;;;;10328192;28;20238;-83
2022/11/24 07:10:14;;;;;;;53.47;26.20;;;8.60;99.90;;;;;;10328685;28;20231;-83
2022/11/24 07:15:17;;;;;;;50.90;23.83;;;7.90;99.90;;;;;;10326940;28;20228;-84
2022/11/24 07:20:19;;;;;;;44.93;22.03;;;8.10;99.90;;;;;;10326168;28;20264;-83
2022/11/24 07:25:23;;;;;;;54.43;27.30;;;8.00;99.90;;;;;;10328019;28;20298;-83
2022/11/24 07:30:27;;;;;;;43.67;24.03;;;7.60;99.90;;;;;;10327426;28;20240;-84
2022/11/24 07:35:29;;;;;;;51.40;25.53;;;7.90;99.90;;;;;;10356801;28;20236;-83
2022/11/24 07:40:32;;;;;;;52.23;27.33;;;8.10;99.90;;;;;;10328524;28;20718;-83
2022/11/24 07:45:34;;;;;;;48.43;22.43;;;7.60;99.90;;;;;;10334400;28;20216;-84
2022/11/24 07:50:37;;;;;;;49.17;24.90;;;8.20;99.90;;;;;;10333077;28;20232;-84
2022/11/24 07:55:39;;;;;;;47.10;22.67;;;8.30;99.90;;;;;;10334247;28;20232;-85
2022/11/24 08:00:42;;;;;;;48.70;25.63;;;7.90;99.90;;;;;;10334072;28;20309;-84
2022/11/24 08:06:01;;;;;;;58.53;29.33;;;7.30;99.90;;;;;;10334524;28;20232;-84
2022/11/24 08:11:24;;;;;;;61.13;31.73;;;7.30;99.90;;;;;;10324377;28;20220;-84
2022/11/24 08:16:27;;;;;;;112.23;60.83;;;7.00;99.90;;;;;;10333565;28;20272;-83
2022/11/24 08:21:29;;;;;;;60.77;30.27;;;7.20;99.90;;;;;;10334694;28;20300;-83
2022/11/24 08:26:32;;;;;;;74.53;35.10;;;6.90;99.90;;;;;;10334203;28;20550;-83
2022/11/24 08:31:36;;;;;;;80.47;37.60;;;7.00;99.90;;;;;;10333785;28;20253;-83
2022/11/24 08:36:39;;;;;;;51.87;23.70;;;7.50;99.90;;;;;;10333612;28;20205;-83
2022/11/24 08:41:41;;;;;;;70.80;37.07;;;7.50;99.90;;;;;;10348739;28;20687;-83
2022/11/24 08:46:44;;;;;;;79.30;36.93;;;7.00;99.90;;;;;;10332591;28;20241;-83
2022/11/24 08:51:47;;;;;;;77.63;34.33;;;6.90;99.90;;;;;;10330622;28;20725;-84
2022/11/24 08:56:49;;;;;;;48.50;25.03;;;6.50;99.90;;;;;;10332865;28;20230;-84
2022/11/24 09:01:52;;;;;;;51.47;25.80;;;7.10;99.90;;;;;;10331962;28;20938;-84
2022/11/24 09:06:54;;;;;;;28.53;15.97;;;7.80;99.90;;;;;;10332310;28;20237;-84
2022/11/24 09:11:57;;;;;;;51.07;23.63;;;8.50;99.90;;;;;;10331419;28;20287;-84
2022/11/24 09:16:59;;;;;;;88.40;41.37;;;8.50;99.90;;;;;;10344997;28;20641;-84
2022/11/24 09:22:02;;;;;;;69.57;35.33;;;7.80;99.90;;;;;;10330101;28;20245;-84
2022/11/24 09:27:05;;;;;;;80.40;38.70;;;8.30;99.90;;;;;;10330482;28;20193;-84
2022/11/24 09:32:07;;;;;;;43.87;23.77;;;8.20;99.90;;;;;;10330142;28;20221;-84
2022/11/24 09:37:10;;;;;;;68.43;33.47;;;8.20;99.90;;;;;;10331361;28;20237;-84
2022/11/24 09:42:22;;;;;;;54.80;27.03;;;8.10;99.90;;;;;;10325542;28;20239;-84
2022/11/24 09:47:33;;;;;;;57.43;25.10;;;8.10;99.90;;;;;;10330858;28;20283;-84
2022/11/24 09:53:02;;;;;;;59.33;28.50;;;8.50;99.90;;;;;;10329732;28;20280;-84
2022/11/24 09:58:42;;;;;;;54.73;26.80;;;8.30;99.90;;;;;;10288832;28;20715;-84
2022/11/24 10:03:48;;;;;;;92.07;39.40;;;8.00;99.90;;;;;;10287340;28;20249;-84
2022/11/24 10:09:02;;;;;;;51.70;25.13;;;8.30;99.90;;;;;;10289012;28;20213;-83
2022/11/24 10:14:13;;;;;;;87.70;38.37;;;8.30;99.90;;;;;;10290056;28;20209;-84
2022/11/24 10:19:51;;;;;;;92.40;41.17;;;7.90;99.90;;;;;;10291243;28;20272;-84
2022/11/24 10:25:33;;;;;;;90.33;36.97;;;7.70;99.90;;;;;;10323141;28;20248;-84
2022/11/24 10:30:36;;;;;;;98.33;45.50;;;7.80;99.90;;;;;;10329434;28;20281;-85
2022/11/24 10:35:54;;;;;;;64.60;33.33;;;7.50;99.90;;;;;;10328389;28;20210;-85
2022/11/24 10:41:01;;;;;;;83.43;37.40;;;7.20;99.90;;;;;;10329379;28;20794;-84
2022/11/24 10:46:20;;;;;;;73.80;34.57;;;7.60;99.90;;;;;;10327911;28;20237;-84
2022/11/24 10:51:32;;;;;;;87.80;39.03;;;8.60;99.90;;;;;;10324734;28;20274;-84
2022/11/24 10:56:43;;;;;;;82.67;37.00;;;8.50;99.90;;;;;;10325367;28;20294;-83
2022/11/24 11:01:45;;;;;;;76.30;36.03;;;7.90;99.90;;;;;;10327188;28;20264;-85
2022/11/24 11:06:48;;;;;;;60.23;28.97;;;7.60;99.90;;;;;;10342845;28;20631;-84
2022/11/24 11:11:52;;;;;;;70.10;33.07;;;8.10;99.90;;;;;;10328708;28;20908;-85
2022/11/24 11:16:58;;;;;;;51.50;25.70;;;8.40;99.90;;;;;;10328543;28;20295;-84
2022/11/24 11:22:14;;;;;;;57.10;28.00;;;8.40;99.90;;;;;;10328177;28;20255;-84
2022/11/24 11:27:21;;;;;;;79.77;36.83;;;8.10;99.90;;;;;;10328260;28;20202;-84
2022/11/24 11:32:26;;;;;;;89.60;43.30;;;7.90;99.90;;;;;;10330575;28;20220;-84
2022/11/24 11:37:51;;;;;;;93.13;44.47;;;7.40;99.90;;;;;;10331449;28;20256;-86
2022/11/24 11:43:00;;;;;;;92.50;45.43;;;7.30;99.90;;;;;;10329990;28;20201;-85
2022/11/24 11:48:29;;;;;;;66.07;31.93;;;7.80;99.90;;;;;;10360414;28;20235;-84
2022/11/24 11:54:02;;;;;;;81.33;33.97;;;7.50;99.90;;;;;;10359449;28;20236;-83
2022/11/24 11:59:28;;;;;;;88.17;40.30;;;7.80;99.90;;;;;;10349107;28;20256;-85
2022/11/24 12:04:51;;;;;;;92.20;44.10;;;7.80;99.90;;;;;;10363396;28;20204;-84
2022/11/24 12:10:15;;;;;;;66.63;32.97;;;7.50;99.90;;;;;;10331402;28;20259;-84
2022/11/24 12:15:43;;;;;;;71.07;35.63;;;7.40;99.90;;;;;;10329967;28;20208;-84
2022/11/24 12:21:18;;;;;;;113.50;51.23;;;7.70;99.90;;;;;;10331413;28;20721;-83
2022/11/24 12:26:57;;;;;;;104.80;47.83;;;7.40;99.90;;;;;;10337628;28;20532;-84
2022/11/24 12:32:31;;;;;;;84.93;38.17;;;7.30;99.90;;;;;;10312408;28;20270;-84
2022/11/24 12:37:59;;;;;;;120.77;54.13;;;7.60;99.90;;;;;;10376615;28;20220;-83
2022/11/24 12:43:18;;;;;;;106.83;47.87;;;8.40;99.90;;;;;;10376355;28;20207;-84
2022/11/24 12:48:45;;;;;;;109.37;52.33;;;7.70;99.90;;;;;;10355948;28;20209;-84
2022/11/24 12:53:51;;;;;;;119.57;54.73;;;7.20;99.90;;;;;;10345752;28;20203;-84
2022/11/24 12:59:01;;;;;;;106.97;49.63;;;6.60;99.90;;;;;;10373990;28;20701;-85
2022/11/24 13:04:14;;;;;;;105.23;50.00;;;6.20;99.90;;;;;;10342277;28;20220;-83
2022/11/24 13:09:17;;;;;;;141.03;64.57;;;6.40;99.90;;;;;;10324042;28;20206;-84
2022/11/24 13:14:42;;;;;;;129.10;54.87;;;4.70;99.90;;;;;;10333494;28;20204;-84
2022/11/24 13:19:45;;;;;;;130.07;56.20;;;4.10;99.90;;;;;;10304423;28;20613;-84
2022/11/24 13:25:15;;;;;;;111.67;50.50;;;4.40;99.90;;;;;;10346996;28;20244;-83
2022/11/24 13:30:32;;;;;;;108.70;47.87;;;5.00;99.90;;;;;;10346729;28;20206;-84
2022/11/24 13:35:35;;;;;;;134.93;57.43;;;5.50;99.90;;;;;;10348990;28;20222;-84
2022/11/24 13:40:40;;;;;;;91.73;42.63;;;6.10;99.90;;;;;;10345442;28;20226;-83
2022/11/24 13:46:03;;;;;;;86.43;42.23;;;6.20;99.90;;;;;;10336533;28;20205;-84
2022/11/24 13:51:13;;;;;;;114.93;49.73;;;6.60;99.90;;;;;;10355202;28;20215;-84
2022/11/24 13:56:15;;;;;;;117.53;52.47;;;6.80;99.90;;;;;;10334554;28;20208;-85
2022/11/24 14:01:25;;;;;;;99.30;45.07;;;6.60;99.90;;;;;;10366233;28;20262;-83
2022/11/24 14:06:36;;;;;;;126.87;56.70;;;7.10;99.90;;;;;;10366873;28;20232;-83
2022/11/24 14:11:40;;;;;;;124.60;55.53;;;7.10;99.90;;;;;;10344123;28;20409;-84
2022/11/24 14:16:42;;;;;;;103.07;48.53;;;5.90;99.90;;;;;;10341522;28;20261;-85
2022/11/24 14:21:45;;;;;;;110.87;50.57;;;5.40;99.90;;;;;;10337302;28;20225;-83
2022/11/24 14:26:48;;;;;;;151.50;72.87;;;5.30;99.90;;;;;;10371733;28;20203;-84
2022/11/24 14:31:56;;;;;;;152.23;70.20;;;5.20;99.90;;;;;;10354832;28;20231;-83
2022/11/24 14:36:59;;;;;;;130.13;62.63;;;5.20;99.90;;;;;;10335948;28;20654;-84
2022/11/24 14:42:26;;;;;;;117.70;54.30;;;5.40;99.90;;;;;;10334857;28;20325;-84
2022/11/24 14:47:31;;;;;;;121.00;55.97;;;5.70;99.90;;;;;;10338904;28;20249;-84
2022/11/24 14:52:34;;;;;;;111.17;50.53;;;5.20;99.90;;;;;;10371194;28;20206;-84
2022/11/24 14:57:39;;;;;;;107.77;49.43;;;5.10;99.90;;;;;;10356743;28;20207;-84
2022/11/24 15:02:47;;;;;;;95.40;45.03;;;5.20;99.90;;;;;;10328094;28;20718;-83
2022/11/24 15:07:59;;;;;;;140.07;60.20;;;5.40;99.90;;;;;;10345943;28;20227;-84
2022/11/24 15:13:06;;;;;;;94.63;42.93;;;5.50;99.90;;;;;;10316593;28;20201;-84
2022/11/24 15:18:31;;;;;;;111.17;49.90;;;5.50;99.90;;;;;;10338952;28;20223;-83
2022/11/24 15:23:35;;;;;;;106.20;49.43;;;5.10;99.90;;;;;;10352842;28;20200;-84
2022/11/24 15:28:37;;;;;;;103.43;50.67;;;5.20;99.90;;;;;;10371274;28;20204;-84
2022/11/24 15:33:41;;;;;;;107.27;48.40;;;5.10;99.90;;;;;;10355952;28;20261;-84
2022/11/24 15:38:43;;;;;;;108.23;52.17;;;4.80;99.90;;;;;;10345006;28;20275;-84
2022/11/24 15:43:45;;;;;;;112.33;50.80;;;4.90;99.90;;;;;;10326567;28;20217;-83
2022/11/24 15:48:48;;;;;;;92.43;44.57;;;5.00;99.90;;;;;;10334260;28;20286;-83
2022/11/24 15:53:54;;;;;;;105.27;50.93;;;4.90;99.90;;;;;;10327853;28;20625;-85
2022/11/24 15:59:02;;;;;;;106.17;48.97;;;5.10;99.90;;;;;;10334944;28;20259;-83
2022/11/24 16:04:05;;;;;;;117.27;58.40;;;5.80;99.90;;;;;;10351783;28;20240;-83
2022/11/24 16:09:13;;;;;;;99.20;46.10;;;5.90;99.90;;;;;;10352274;28;20296;-84
2022/11/24 16:14:15;;;;;;;100.83;49.90;;;6.10;99.90;;;;;;10330270;28;20300;-84
2022/11/24 16:19:18;;;;;;;80.97;37.97;;;6.00;99.90;;;;;;10329354;28;20268;-84
2022/11/24 16:24:20;;;;;;;126.37;58.80;;;7.10;99.90;;;;;;10327671;28;20260;-84
2022/11/24 16:29:23;;;;;;;114.00;54.83;;;6.50;99.90;;;;;;10295903;28;20736;-84
2022/11/24 16:34:25;;;;;;;114.23;52.30;;;5.50;99.90;;;;;;10321251;28;20208;-84
2022/11/24 16:39:28;;;;;;;112.40;49.83;;;5.00;99.90;;;;;;10335562;28;20249;-84
2022/11/24 16:44:30;;;;;;;111.27;47.20;;;5.30;99.90;;;;;;10335875;28;20255;-84
2022/11/24 16:49:33;;;;;;;94.63;44.30;;;4.90;99.90;;;;;;10335274;28;20263;-84
2022/11/24 16:54:36;;;;;;;90.10;42.50;;;4.90;99.90;;;;;;10335411;28;20268;-85
2022/11/24 16:59:39;;;;;;;99.07;45.93;;;5.20;99.90;;;;;;10335653;28;20310;-85
2022/11/24 17:04:41;;;;;;;98.90;47.40;;;5.40;99.90;;;;;;10358931;28;20246;-85
2022/11/24 17:09:44;;;;;;;114.13;51.13;;;5.10;99.90;;;;;;10343237;28;20243;-84
2022/11/24 17:14:46;;;;;;;153.73;78.60;;;5.00;99.90;;;;;;10334418;28;20211;-85
2022/11/24 17:20:09;;;;;;;102.87;48.73;;;4.70;99.90;;;;;;10333820;28;20783;-85
2022/11/24 17:25:11;;;;;;;107.63;50.20;;;5.10;99.90;;;;;;10332935;28;20235;-84
2022/11/24 17:30:15;;;;;;;109.40;51.07;;;5.00;99.90;;;;;;10332425;28;20207;-84
2022/11/24 17:35:18;;;;;;;148.03;65.43;;;4.90;99.90;;;;;;10365753;28;20615;-85
2022/11/24 17:40:20;;;;;;;155.83;68.60;;;5.30;99.90;;;;;;10332401;28;20783;-84
2022/11/24 17:45:31;;;;;;;139.17;63.13;;;5.50;99.90;;;;;;10333156;28;20272;-84
2022/11/24 17:50:34;;;;;;;134.23;61.47;;;5.80;99.90;;;;;;10332516;28;20199;-84
2022/11/24 17:55:36;;;;;;;112.93;49.47;;;6.30;99.90;;;;;;10333162;28;20201;-84
2022/11/24 18:00:39;;;;;;;113.70;53.10;;;6.40;99.90;;;;;;10331698;28;20233;-84
2022/11/24 18:05:41;;;;;;;88.77;40.57;;;6.90;99.90;;;;;;10331101;28;20197;-84
2022/11/24 18:10:44;;;;;;;103.83;47.13;;;7.20;99.90;;;;;;10329554;28;20204;-84
2022/11/24 18:15:46;;;;;;;100.03;47.33;;;7.50;99.90;;;;;;10328766;28;20220;-84
2022/11/24 18:20:56;;;;;;;79.17;39.70;;;8.00;99.90;;;;;;10331741;28;20237;-84
2022/11/24 18:26:01;;;;;;;94.50;45.30;;;8.60;99.90;;;;;;10331330;28;20201;-84
2022/11/24 18:31:06;;;;;;;98.97;47.07;;;8.60;99.90;;;;;;10330959;28;20201;-84
2022/11/24 18:36:13;;;;;;;99.57;47.20;;;8.80;99.90;;;;;;10329552;28;20274;-86
2022/11/24 18:41:16;;;;;;;123.07;56.20;;;9.00;99.90;;;;;;10329873;28;20264;-84
2022/11/24 18:46:18;;;;;;;124.80;54.80;;;8.70;99.90;;;;;;10333802;28;20281;-84
2022/11/24 18:51:22;;;;;;;145.13;62.57;;;9.10;99.90;;;;;;10319227;28;20755;-84
2022/11/24 18:56:25;;;;;;;102.97;50.73;;;8.60;99.90;;;;;;10335138;28;20279;-83
2022/11/24 19:01:28;;;;;;;144.60;66.70;;;8.10;99.90;;;;;;10322722;28;20265;-83
2022/11/24 19:06:34;;;;;;;135.43;61.47;;;7.40;99.90;;;;;;10357816;28;20739;-83
2022/11/24 19:11:39;;;;;;;132.77;61.00;;;7.30;99.90;;;;;;10326937;28;20263;-84
2022/11/24 19:16:43;;;;;;;132.37;62.50;;;6.20;99.90;;;;;;9977473;28;10000248;-84
2022/11/24 19:21:45;;;;;;;135.47;62.93;;;5.70;99.90;;;;;;10324822;28;20299;-84
2022/11/24 19:26:47;;;;;;;136.87;62.73;;;5.20;99.90;;;;;;10306556;28;20226;-84
2022/11/24 19:31:52;;;;;;;135.03;63.07;;;4.80;99.90;;;;;;10364764;28;20263;-84
2022/11/24 19:36:54;;;;;;;126.57;59.27;;;4.60;99.90;;;;;;10322159;28;20236;-84
2022/11/24 19:41:57;;;;;;;126.43;60.20;;;4.90;99.90;;;;;;10339881;28;20268;-84
2022/11/24 19:46:59;;;;;;;131.00;59.73;;;4.80;99.90;;;;;;10331407;28;20242;-84
2022/11/24 19:52:02;;;;;;;135.07;62.63;;;4.80;99.90;;;;;;10325427;28;20273;-84
2022/11/24 19:57:04;;;;;;;132.70;59.80;;;4.60;99.90;;;;;;10309084;28;20275;-85
2022/11/24 20:02:08;;;;;;;126.43;60.17;;;4.80;99.90;;;;;;10361843;28;20264;-85
2022/11/24 20:07:10;;;;;;;128.57;60.33;;;5.00;99.90;;;;;;10330397;28;20229;-84
2022/11/24 20:12:13;;;;;;;107.73;49.97;;;4.80;99.90;;;;;;10342916;28;20232;-84
2022/11/24 20:17:16;;;;;;;115.80;54.27;;;5.60;99.90;;;;;;10340914;28;20684;-84
2022/11/24 20:22:18;;;;;;;125.73;59.47;;;5.90;99.90;;;;;;10353682;28;20254;-84
2022/11/24 20:27:21;;;;;;;133.63;61.67;;;5.30;99.90;;;;;;10365913;28;20235;-85
2022/11/24 20:32:23;;;;;;;140.87;62.37;;;5.80;99.90;;;;;;10329546;28;20277;-84
2022/11/24 20:37:27;;;;;;;142.67;68.33;;;6.10;99.90;;;;;;10340653;28;20239;-84
2022/11/24 20:42:30;;;;;;;174.53;81.67;;;6.20;99.90;;;;;;10327645;28;20651;-85
2022/11/24 20:47:33;;;;;;;170.80;80.33;;;5.90;99.90;;;;;;10337148;28;20299;-84
2022/11/24 20:52:35;;;;;;;151.70;71.23;;;5.60;99.90;;;;;;10330791;28;20232;-84
2022/11/24 20:57:38;;;;;;;134.20;63.97;;;5.20;99.90;;;;;;10357491;28;20289;-84
2022/11/24 21:02:41;;;;;;;112.20;54.43;;;5.20;99.90;;;;;;10344843;28;20891;-84
2022/11/24 21:07:43;;;;;;;115.13;53.97;;;5.90;99.90;;;;;;10326892;28;20225;-84
2022/11/24 21:12:46;;;;;;;134.23;61.30;;;6.70;99.90;;;;;;10349292;28;20228;-84
2022/11/24 21:17:48;;;;;;;128.57;58.27;;;6.10;99.90;;;;;;10318759;28;20260;-84
2022/11/24 21:22:51;;;;;;;165.33;75.93;;;5.60;99.90;;;;;;10338654;28;20256;-84
2022/11/24 21:27:53;;;;;;;114.40;51.03;;;4.20;99.90;;;;;;10363547;28;20262;-84
2022/11/24 21:32:55;;;;;;;131.73;58.00;;;4.30;99.90;;;;;;10362684;28;20236;-84
2022/11/24 21:37:58;;;;;;;142.53;64.63;;;5.20;99.90;;;;;;10326422;28;20285;-84
2022/11/24 21:43:00;;;;;;;132.40;57.13;;;5.60;99.90;;;;;;10342679;28;20248;-84
2022/11/24 21:48:03;;;;;;;136.43;63.33;;;5.50;99.90;;;;;;10330841;28;20230;-84
2022/11/24 21:53:08;;;;;;;110.63;50.63;;;5.50;99.90;;;;;;10330208;28;20617;-84
2022/11/24 21:58:10;;;;;;;159.03;69.23;;;5.70;99.90;;;;;;10324247;28;20697;-84
2022/11/24 22:03:13;;;;;;;156.13;71.73;;;5.60;99.90;;;;;;10365883;28;20671;-84
2022/11/24 22:08:15;;;;;;;171.10;70.80;;;5.50;99.90;;;;;;10347329;28;20236;-83
2022/11/24 22:13:18;;;;;;;93.43;42.83;;;5.40;99.90;;;;;;10329042;28;20281;-84
2022/11/24 22:18:21;;;;;;;141.27;62.67;;;6.10;99.90;;;;;;10307084;28;20272;-84
2022/11/24 22:23:24;;;;;;;152.80;67.00;;;6.80;99.90;;;;;;10337293;28;20336;-84
2022/11/24 22:28:29;;;;;;;161.60;72.60;;;6.50;99.90;;;;;;10349527;28;20269;-84
2022/11/24 22:33:32;;;;;;;171.73;73.60;;;5.90;99.90;;;;;;10358266;28;20270;-83
2022/11/24 22:38:35;;;;;;;165.63;73.40;;;5.70;99.90;;;;;;10368605;28;20289;-84
2022/11/24 22:43:39;;;;;;;127.33;57.90;;;6.40;99.90;;;;;;10349746;28;20664;-84
2022/11/24 22:48:42;;;;;;;154.83;66.43;;;6.50;99.90;;;;;;10368147;28;20258;-84
2022/11/24 22:53:54;;;;;;;121.00;50.60;;;7.10;99.90;;;;;;10359108;28;20211;-83
2022/11/24 22:58:58;;;;;;;107.70;48.20;;;7.70;99.90;;;;;;10327353;28;20201;-84
2022/11/24 23:04:02;;;;;;;106.87;49.03;;;8.20;99.90;;;;;;10327847;28;20323;-84
2022/11/24 23:09:06;;;;;;;97.40;43.53;;;8.50;99.90;;;;;;10329740;28;20806;-84
2022/11/24 23:14:13;;;;;;;96.07;46.17;;;8.70;99.90;;;;;;10322771;28;20278;-83
2022/11/24 23:19:16;;;;;;;113.03;49.67;;;8.90;99.90;;;;;;10335644;28;20269;-84
2022/11/24 23:24:19;;;;;;;103.13;48.23;;;8.80;99.90;;;;;;10355687;28;20316;-84
2022/11/24 23:29:21;;;;;;;97.57;45.37;;;8.50;99.90;;;;;;10327698;28;20251;-84
2022/11/24 23:34:23;;;;;;;130.27;60.90;;;8.00;99.90;;;;;;10326417;28;20626;-85
2022/11/24 23:39:26;;;;;;;104.93;47.20;;;7.60;99.90;;;;;;10357289;28;20236;-84
2022/11/24 23:44:28;;;;;;;108.00;46.70;;;7.70;99.90;;;;;;10325390;28;20259;-84
2022/11/24 23:49:31;;;;;;;99.83;42.33;;;8.20;99.90;;;;;;10325643;28;20201;-84
2022/11/24 23:54:33;;;;;;;104.23;47.60;;;8.50;99.90;;;;;;10327229;28;20243;-84
2022/11/24 23:59:36;;;;;;;90.47;41.73;;;8.30;99.90;;;;;;10326977;28;20283;-84
